首页
METAR-TAF:

METAR-TAF

机场 :

Woodward, 奧克拉荷馬州, 美国

纬度: 36-26-12N, 经度: 099-31-16W, 海拔: 667米

当前天气观测

该预报发布于46分钟前的00:10 UTC
风速4节,风向东南
温度 30°C
湿度 40%
气压 1005 hPa
能見度: 16.1公里
天空无云

METAR: KWWR 210010Z AUTO 13004KT 10SM CLR 30/15 A2969 RMK AO2

时间: 19:56 (00:56 UTC)

预报

该预报发布于1小时和36分钟前的23:20 UTC
预报有效从21日的 00点(UTC)到 21日的 24点(UTC)
风速12节,风向南转南东
能見度: 10公里
散云层高于25000英尺
从 21日的 0800点(UTC)
风速17节,风向,有时为29节阵风
能見度: 10公里
少量云层高于25000英尺
从 21日的 1400点(UTC)
风速17节,风向西转西南,有时为24节阵风
能見度: 10公里
天空无云
从 21日的 2000点(UTC)
风速13节,风向西
能見度: 10公里
天空无云

TAF: KWWR 202320Z 2100/2124 15012KT P6SM SCT250 FM210800 19017G29KT P6SM FEW250 WS020/20050KT FM211400 25017G24KT P6SM SKC FM212000 26013KT P6SM SKC

超过4000个机场的气象观测和天气预报(METAR&TAF报告)。

可查询的气象台以黄色和红色小点在地图上表示。

将鼠标移到小点上方,可查看气象台名称。

然后点击查看天气观测和预报。

如需切换地图:点击带黑十字的绿色按钮放大地图;点击带横线的绿色按钮缩小地图;或者点击绿色箭头查看邻近地区的地图。


METAR-TAF: